createdAt,value
2023-06-01T00:02:01.978Z,64.52
2023-06-01T00:04:28.406Z,64.44
2023-06-01T00:06:54.842Z,64.21
2023-06-01T00:09:21.326Z,64.42
2023-06-01T00:11:47.773Z,64.92
2023-06-01T00:14:14.309Z,64.43
2023-06-01T00:16:40.773Z,64.16
2023-06-01T00:19:07.801Z,64.40
2023-06-01T00:21:36.568Z,64.71
2023-06-01T00:24:03.772Z,64.32
2023-06-01T00:26:32.882Z,64.61
2023-06-01T00:29:00.440Z,64.52
2023-06-01T00:31:27.619Z,64.86
2023-06-01T00:33:54.536Z,64.94
2023-06-01T00:36:21.468Z,64.94
2023-06-01T00:38:47.799Z,64.61
2023-06-01T00:41:14.393Z,64.92
2023-06-01T00:43:41.070Z,65.18
2023-06-01T00:46:07.858Z,65.13
2023-06-01T00:48:35.540Z,65.26
2023-06-01T00:51:02.252Z,65.08
2023-06-01T00:53:28.841Z,65.20
2023-06-01T00:55:55.722Z,65.37
2023-06-01T00:58:22.600Z,65.39
2023-06-01T01:00:49.541Z,65.67
2023-06-01T01:03:17.171Z,65.67
2023-06-01T01:05:43.963Z,66.11
2023-06-01T01:08:32.094Z,65.29
2023-06-01T01:11:09.794Z,65.63
2023-06-01T01:13:48.390Z,65.87
2023-06-01T01:16:31.416Z,66.48
2023-06-01T01:19:26.904Z,66.08
2023-06-01T01:22:35.423Z,66.24
2023-06-01T01:25:22.249Z,66.17
2023-06-01T01:28:11.135Z,66.93
2023-06-01T01:30:38.922Z,66.74
2023-06-01T01:33:07.034Z,66.98
2023-06-01T01:35:34.478Z,67.22
2023-06-01T01:38:00.849Z,66.86
2023-06-01T01:40:27.338Z,66.78
2023-06-01T01:42:54.810Z,66.83
2023-06-01T01:45:22.029Z,66.76
2023-06-01T01:48:06.516Z,66.83
2023-06-01T01:50:53.158Z,66.79
2023-06-01T01:53:20.847Z,67.09
2023-06-01T01:55:49.772Z,66.81
2023-06-01T01:58:16.760Z,66.99
2023-06-01T02:00:44.528Z,66.52
2023-06-01T02:03:15.982Z,66.76
2023-06-01T02:05:42.542Z,66.79
2023-06-01T02:08:09.054Z,66.86
2023-06-01T02:10:35.595Z,66.90
2023-06-01T02:13:01.943Z,67.32
2023-06-01T02:15:28.477Z,66.64
2023-06-01T02:17:54.921Z,66.80
2023-06-01T02:20:21.523Z,66.72
2023-06-01T02:22:47.936Z,67.41
2023-06-01T02:25:14.420Z,67.33
2023-06-01T02:27:40.802Z,66.71
2023-06-01T02:30:08.685Z,67.07
2023-06-01T02:32:36.045Z,67.11
2023-06-01T02:35:02.522Z,67.42
2023-06-01T02:37:28.947Z,66.91
2023-06-01T02:39:55.469Z,67.19
2023-06-01T02:42:21.830Z,67.39
2023-06-01T02:44:48.339Z,67.62
2023-06-01T02:47:14.761Z,67.42
2023-06-01T02:49:41.531Z,67.74
2023-06-01T02:52:08.104Z,67.41
2023-06-01T02:54:34.627Z,67.57
2023-06-01T02:57:02.607Z,67.69
2023-06-01T02:59:28.968Z,67.35
2023-06-01T03:01:55.557Z,67.75
2023-06-01T03:04:22.076Z,67.85
2023-06-01T03:06:50.452Z,67.59
2023-06-01T03:09:17.085Z,67.67
2023-06-01T03:11:43.595Z,68.06
2023-06-01T03:14:09.998Z,68.09
2023-06-01T03:16:36.438Z,68.24
2023-06-01T03:19:03.111Z,68.44
2023-06-01T03:21:29.752Z,68.05
2023-06-01T03:23:56.185Z,68.25
2023-06-01T03:26:22.725Z,68.16
2023-06-01T03:28:49.208Z,68.22
2023-06-01T03:31:16.748Z,67.77
2023-06-01T03:33:43.279Z,68.23
2023-06-01T03:36:09.982Z,68.45
2023-06-01T03:38:36.442Z,68.29
2023-06-01T03:41:03.073Z,68.10
2023-06-01T03:43:29.757Z,68.58
2023-06-01T03:45:57.298Z,68.31
2023-06-01T03:48:23.758Z,68.32
2023-06-01T03:50:50.386Z,68.46
2023-06-01T03:53:16.748Z,68.40
2023-06-01T03:55:43.199Z,68.23
2023-06-01T03:58:09.577Z,68.48
2023-06-01T04:00:37.003Z,68.42
2023-06-01T04:03:08.162Z,68.57
2023-06-01T04:05:37.221Z,68.30
2023-06-01T04:08:03.777Z,68.50
2023-06-01T04:10:30.610Z,68.89
2023-06-01T04:12:57.070Z,68.61
2023-06-01T04:15:24.028Z,68.39
2023-06-01T04:17:50.702Z,68.59
2023-06-01T04:20:18.240Z,68.62
2023-06-01T04:22:46.563Z,68.35
2023-06-01T04:25:18.469Z,68.37
2023-06-01T04:27:47.088Z,68.03
2023-06-01T04:30:16.349Z,68.49
2023-06-01T04:32:45.223Z,68.43
2023-06-01T04:35:11.851Z,68.21
2023-06-01T04:37:42.422Z,68.37
2023-06-01T04:40:10.730Z,67.93
2023-06-01T04:42:39.849Z,67.82
2023-06-01T04:45:08.932Z,67.69
2023-06-01T04:47:38.777Z,68.09
2023-06-01T04:50:09.384Z,68.67
2023-06-01T04:52:39.756Z,67.91
2023-06-01T04:55:07.176Z,67.96
2023-06-01T04:57:36.521Z,68.37
2023-06-01T05:00:12.227Z,68.24
2023-06-01T05:02:39.876Z,68.18
2023-06-01T05:05:08.600Z,67.83
2023-06-01T05:07:37.567Z,67.98
2023-06-01T05:10:07.038Z,67.98
2023-06-01T05:12:34.269Z,68.29
2023-06-01T05:15:01.781Z,68.40
2023-06-01T05:17:28.269Z,68.44
2023-06-01T05:19:54.752Z,68.37
2023-06-01T05:22:21.169Z,68.56
2023-06-01T05:24:47.771Z,68.35
2023-06-01T05:27:14.303Z,68.17
2023-06-01T05:29:41.156Z,68.57
2023-06-01T05:32:08.205Z,67.74
2023-06-01T05:34:34.637Z,67.79
2023-06-01T05:37:02.380Z,67.82
2023-06-01T05:39:29.372Z,67.86
2023-06-01T05:41:56.560Z,67.91
2023-06-01T05:44:23.228Z,67.82
2023-06-01T05:46:50.499Z,68.18
2023-06-01T05:49:16.894Z,67.82
2023-06-01T05:51:44.124Z,67.68
2023-06-01T05:54:11.123Z,67.51
2023-06-01T05:56:43.497Z,67.34
2023-06-01T05:59:09.883Z,67.27
2023-06-01T06:01:37.470Z,67.76
2023-06-01T06:04:04.365Z,66.98
2023-06-01T06:06:32.765Z,67.53
2023-06-01T06:08:59.613Z,67.25
2023-06-01T06:11:27.092Z,67.12
2023-06-01T06:13:53.594Z,66.82
2023-06-01T06:16:20.205Z,66.84
2023-06-01T06:18:46.656Z,66.65
2023-06-01T06:21:13.050Z,67.26
2023-06-01T06:23:40.891Z,67.29
2023-06-01T06:26:07.919Z,67.35
2023-06-01T06:28:34.398Z,67.12
2023-06-01T06:31:01.173Z,66.54
2023-06-01T06:33:28.519Z,66.61
2023-06-01T06:35:55.418Z,66.46
2023-06-01T06:38:21.932Z,66.28
2023-06-01T06:40:48.570Z,66.24
2023-06-01T06:43:16.121Z,66.48
2023-06-01T06:45:42.872Z,66.15
2023-06-01T06:48:09.524Z,66.01
2023-06-01T06:50:36.606Z,65.80
2023-06-01T06:53:03.106Z,65.86
2023-06-01T06:55:29.507Z,65.84
2023-06-01T06:57:56.210Z,66.02
2023-06-01T07:00:23.316Z,65.51
2023-06-01T07:02:49.845Z,65.79
2023-06-01T07:05:16.589Z,65.68
2023-06-01T07:07:43.221Z,65.93
2023-06-01T07:10:09.816Z,65.82
2023-06-01T07:12:36.476Z,65.60
2023-06-01T07:15:03.638Z,65.58
2023-06-01T07:17:30.045Z,65.21
2023-06-01T07:19:56.930Z,64.84
2023-06-01T07:22:23.210Z,64.71
2023-06-01T07:24:49.657Z,64.74
2023-06-01T07:27:16.144Z,64.43
2023-06-01T07:29:45.505Z,64.76
2023-06-01T07:32:12.134Z,64.01
2023-06-01T07:34:38.674Z,63.92
2023-06-01T07:37:16.389Z,64.00
2023-06-01T07:39:44.489Z,63.91
2023-06-01T07:42:11.076Z,63.61
2023-06-01T07:44:37.840Z,63.43
2023-06-01T07:47:04.367Z,63.57
2023-06-01T07:49:30.851Z,63.47
2023-06-01T07:51:57.808Z,63.34
2023-06-01T07:54:24.240Z,63.63
2023-06-01T07:56:50.925Z,63.21
2023-06-01T07:59:17.442Z,62.81
2023-06-01T08:01:43.924Z,62.70
2023-06-01T08:04:11.675Z,62.48
2023-06-01T08:06:39.140Z,62.84
2023-06-01T08:09:05.609Z,62.12
2023-06-01T08:11:32.138Z,62.43
2023-06-01T08:14:00.982Z,61.80
2023-06-01T08:16:28.064Z,62.61
2023-06-01T08:18:54.577Z,62.96
2023-06-01T08:21:21.378Z,62.75
2023-06-01T08:23:48.556Z,62.76
2023-06-01T08:26:14.984Z,62.14
2023-06-01T08:28:41.823Z,61.55
2023-06-01T08:31:08.876Z,61.62
2023-06-01T08:33:35.664Z,61.33
2023-06-01T08:36:02.260Z,61.18
2023-06-01T08:38:33.368Z,61.10
2023-06-01T08:41:06.540Z,61.22
2023-06-01T08:43:36.843Z,61.11
2023-06-01T08:46:03.712Z,61.38
2023-06-01T08:48:32.483Z,60.17
2023-06-01T08:51:00.766Z,61.02
2023-06-01T08:53:29.351Z,60.64
2023-06-01T08:55:57.566Z,60.60
2023-06-01T08:58:25.258Z,60.44
2023-06-01T09:00:54.553Z,60.94
2023-06-01T09:03:21.294Z,60.29
2023-06-01T09:05:47.866Z,59.99
2023-06-01T09:08:15.293Z,60.56
2023-06-01T09:10:41.766Z,60.05
2023-06-01T09:13:08.302Z,59.77
2023-06-01T09:15:34.804Z,59.26
2023-06-01T09:18:11.797Z,59.52
2023-06-01T09:20:40.080Z,59.53
2023-06-01T09:23:06.577Z,59.49
2023-06-01T09:25:33.972Z,59.23
2023-06-01T09:28:02.827Z,59.09
2023-06-01T09:30:44.052Z,59.47
2023-06-01T09:33:16.411Z,58.43
2023-06-01T09:35:44.323Z,57.92
2023-06-01T09:38:11.633Z,57.76
2023-06-01T09:40:39.665Z,58.16
2023-06-01T09:43:22.809Z,57.81
2023-06-01T09:46:14.942Z,57.89
2023-06-01T09:48:43.207Z,57.84
2023-06-01T09:51:23.706Z,57.49
2023-06-01T09:53:50.143Z,58.12
2023-06-01T09:56:16.515Z,57.28
2023-06-01T09:58:44.452Z,57.07
2023-06-01T10:01:11.145Z,56.95
2023-06-01T10:03:43.727Z,55.74
2023-06-01T10:06:12.350Z,56.27
2023-06-01T10:08:39.267Z,55.04
2023-06-01T10:11:06.373Z,55.65
2023-06-01T10:13:32.814Z,55.31
2023-06-01T10:15:59.362Z,54.96
2023-06-01T10:18:26.136Z,55.29
2023-06-01T10:20:53.130Z,55.00
2023-06-01T10:23:29.657Z,54.60
2023-06-01T10:25:58.592Z,54.31
2023-06-01T10:28:26.763Z,53.71
2023-06-01T10:31:31.018Z,52.85
2023-06-01T10:33:58.940Z,53.33
2023-06-01T10:36:27.251Z,53.69
2023-06-01T10:39:25.554Z,53.61
2023-06-01T10:41:52.458Z,53.64
2023-06-01T10:44:41.065Z,53.84
2023-06-01T10:47:07.953Z,53.50
2023-06-01T10:49:55.229Z,53.31
2023-06-01T10:52:30.644Z,53.05
2023-06-01T10:55:20.007Z,52.56
2023-06-01T10:57:47.653Z,52.77
2023-06-01T11:00:27.802Z,52.42
2023-06-01T11:02:54.927Z,51.25
2023-06-01T11:05:48.461Z,51.56
2023-06-01T11:08:17.879Z,52.14
2023-06-01T11:11:01.062Z,52.59
2023-06-01T11:13:31.326Z,53.06
2023-06-01T11:16:21.379Z,53.16
2023-06-01T11:19:01.939Z,53.09
2023-06-01T11:21:30.049Z,52.18
2023-06-01T11:23:59.260Z,52.35
2023-06-01T11:26:31.642Z,51.79
2023-06-01T11:29:10.697Z,52.00
2023-06-01T11:31:44.996Z,51.42
2023-06-01T11:34:12.852Z,51.65
2023-06-01T11:36:44.444Z,51.07
2023-06-01T11:39:23.158Z,51.50
2023-06-01T11:42:06.161Z,50.98
2023-06-01T11:44:36.726Z,51.45
2023-06-01T11:47:05.275Z,51.98
2023-06-01T11:49:31.683Z,52.07
2023-06-01T11:51:58.641Z,53.21
2023-06-01T11:54:27.602Z,53.03
2023-06-01T11:56:58.133Z,52.72
2023-06-01T11:59:25.447Z,52.86
2023-06-01T12:01:53.409Z,53.48
2023-06-01T12:04:22.938Z,54.02
2023-06-01T12:06:50.204Z,54.01
2023-06-01T12:09:17.890Z,54.98
2023-06-01T12:11:45.519Z,55.19
2023-06-01T12:14:14.633Z,55.12
2023-06-01T12:17:04.141Z,55.84
2023-06-01T12:19:32.910Z,56.17
2023-06-01T12:22:00.070Z,56.03
2023-06-01T12:24:32.179Z,55.89
2023-06-01T12:26:59.813Z,56.57
2023-06-01T12:29:43.293Z,56.49
2023-06-01T12:32:11.781Z,57.57
2023-06-01T12:34:40.272Z,57.76
2023-06-01T12:37:20.056Z,57.45
2023-06-01T12:40:02.002Z,57.12
2023-06-01T12:42:38.615Z,57.94
2023-06-01T12:45:06.990Z,58.17
2023-06-01T12:47:40.826Z,57.99
2023-06-01T12:50:13.303Z,58.37
2023-06-01T12:52:43.182Z,57.86
2023-06-01T12:55:10.363Z,58.27
2023-06-01T12:57:38.979Z,59.15
2023-06-01T13:00:07.341Z,59.10
2023-06-01T13:02:34.759Z,58.62
2023-06-01T13:05:02.163Z,58.89
2023-06-01T13:07:28.556Z,58.79
2023-06-01T13:09:54.921Z,58.98
2023-06-01T13:12:21.572Z,59.69
2023-06-01T13:14:47.924Z,58.63
2023-06-01T13:17:14.373Z,59.25
2023-06-01T13:19:42.079Z,59.35
2023-06-01T13:22:10.883Z,59.58
2023-06-01T13:27:08.174Z,59.25
2023-06-01T13:29:34.597Z,59.92
2023-06-01T13:32:01.085Z,59.91
2023-06-01T13:34:27.592Z,60.79
2023-06-01T13:36:54.021Z,60.88
2023-06-01T13:39:20.450Z,60.90
2023-06-01T13:41:47.601Z,60.93
2023-06-01T13:44:14.055Z,60.95
2023-06-01T13:46:40.707Z,60.34
2023-06-01T13:49:08.010Z,60.22
2023-06-01T13:51:34.725Z,60.32
2023-06-01T13:54:01.592Z,60.28
2023-06-01T13:56:28.093Z,60.33
2023-06-01T13:58:54.561Z,60.22
2023-06-01T14:01:23.543Z,60.06
2023-06-01T14:03:50.632Z,59.46
2023-06-01T14:06:19.300Z,59.54
2023-06-01T14:08:46.183Z,59.58
2023-06-01T14:11:12.554Z,59.52
2023-06-01T14:13:38.942Z,59.95
2023-06-01T14:16:05.768Z,59.74
2023-06-01T14:18:32.552Z,59.87
2023-06-01T14:21:00.763Z,60.29
2023-06-01T14:23:27.208Z,60.36
2023-06-01T14:25:55.935Z,60.37
2023-06-01T14:28:22.384Z,61.06
2023-06-01T14:30:48.941Z,61.80
2023-06-01T14:33:15.527Z,62.08
2023-06-01T14:35:42.071Z,61.98
2023-06-01T14:38:08.522Z,61.81
2023-06-01T14:40:34.927Z,62.45
2023-06-01T14:43:01.266Z,62.88
2023-06-01T14:45:27.939Z,62.64
2023-06-01T14:47:54.466Z,62.90
2023-06-01T14:50:21.027Z,62.10
2023-06-01T14:52:47.460Z,61.68
2023-06-01T14:55:15.429Z,61.48
2023-06-01T14:57:42.166Z,60.95
2023-06-01T15:00:09.794Z,60.98
2023-06-01T15:02:36.284Z,60.45
2023-06-01T15:05:03.034Z,60.79
2023-06-01T15:07:29.304Z,60.37
2023-06-01T15:09:55.956Z,60.33
2023-06-01T15:12:22.367Z,60.09
2023-06-01T15:14:49.394Z,59.52
2023-06-01T15:17:16.004Z,59.19
2023-06-01T15:19:42.517Z,59.49
2023-06-01T15:22:09.150Z,59.01
2023-06-01T15:24:35.635Z,59.12
2023-06-01T15:27:02.089Z,60.29
2023-06-01T15:29:28.499Z,59.81
2023-06-01T15:31:54.876Z,59.86
2023-06-01T15:34:21.392Z,59.98
2023-06-01T15:36:47.832Z,59.71
2023-06-01T15:39:16.287Z,60.10
2023-06-01T15:41:42.943Z,60.72
2023-06-01T15:44:09.456Z,60.57
2023-06-01T15:46:36.100Z,60.25
2023-06-01T15:49:02.577Z,59.56
2023-06-01T15:51:29.032Z,59.66
2023-06-01T15:53:55.423Z,60.29
2023-06-01T15:56:22.796Z,59.39
2023-06-01T15:58:50.923Z,58.67
2023-06-01T16:01:29.276Z,59.13
2023-06-01T16:03:57.891Z,59.19
2023-06-01T16:06:24.577Z,58.55
2023-06-01T16:08:51.001Z,58.52
2023-06-01T16:11:17.555Z,58.27
2023-06-01T16:13:43.906Z,57.94
2023-06-01T16:16:10.424Z,57.65
2023-06-01T16:18:36.958Z,57.93
2023-06-01T16:21:04.084Z,57.77
2023-06-01T16:23:31.140Z,57.06
2023-06-01T16:25:57.619Z,57.79
2023-06-01T16:28:24.061Z,57.24
2023-06-01T16:30:50.444Z,57.34
2023-06-01T16:33:16.909Z,57.11
2023-06-01T16:35:43.352Z,56.52
2023-06-01T16:38:09.746Z,56.35
2023-06-01T16:40:36.227Z,56.71
2023-06-01T16:43:02.642Z,56.71
2023-06-01T16:45:31.457Z,57.51
2023-06-01T16:47:58.604Z,57.76
2023-06-01T16:50:25.069Z,58.84
2023-06-01T16:52:51.610Z,59.25
2023-06-01T16:55:18.100Z,59.14
2023-06-01T16:57:44.562Z,59.09
2023-06-01T17:00:12.340Z,59.14
2023-06-01T17:02:40.078Z,58.53
2023-06-01T17:05:07.126Z,58.58
2023-06-01T17:07:33.533Z,58.31
2023-06-01T17:09:59.990Z,58.22
2023-06-01T17:12:26.662Z,58.34
2023-06-01T17:14:53.163Z,58.61
2023-06-01T17:17:20.955Z,58.82
2023-06-01T17:19:47.741Z,58.70
2023-06-01T17:22:14.327Z,59.04
2023-06-01T17:24:40.844Z,58.81
2023-06-01T17:27:07.975Z,59.52
2023-06-01T17:29:34.571Z,59.71
2023-06-01T17:32:02.193Z,59.56
2023-06-01T17:34:29.321Z,60.16
2023-06-01T17:36:55.903Z,59.98
2023-06-01T17:39:22.554Z,60.52
2023-06-01T17:41:49.705Z,60.00
2023-06-01T17:44:18.796Z,60.10
2023-06-01T17:46:46.101Z,60.25
2023-06-01T17:49:12.745Z,60.50
2023-06-01T17:51:41.302Z,60.58
2023-06-01T17:54:08.781Z,60.65
2023-06-01T17:56:35.612Z,60.25
2023-06-01T17:59:02.354Z,59.85
2023-06-01T18:01:29.281Z,60.21
2023-06-01T18:03:58.949Z,60.28
2023-06-01T18:06:26.285Z,60.07
2023-06-01T18:08:52.820Z,59.55
2023-06-01T18:11:19.302Z,60.12
2023-06-01T18:13:45.846Z,60.16
2023-06-01T18:16:12.471Z,60.14
2023-06-01T18:18:39.069Z,60.54
2023-06-01T18:21:05.795Z,60.96
2023-06-01T18:23:32.312Z,60.84
2023-06-01T18:25:58.787Z,61.21
2023-06-01T18:28:25.276Z,61.15
2023-06-01T18:30:51.704Z,61.13
2023-06-01T18:33:18.626Z,60.74
2023-06-01T18:35:45.091Z,60.52
2023-06-01T18:38:11.507Z,60.17
2023-06-01T18:40:38.016Z,60.49
2023-06-01T18:43:04.774Z,60.65
2023-06-01T18:45:32.851Z,61.26
2023-06-01T18:47:59.660Z,61.06
2023-06-01T18:50:29.727Z,60.75
2023-06-01T18:52:56.101Z,61.06
2023-06-01T18:55:22.606Z,60.50
2023-06-01T18:57:49.215Z,60.14
2023-06-01T19:00:15.876Z,59.70
2023-06-01T19:02:45.952Z,59.67
2023-06-01T19:05:12.354Z,60.25
2023-06-01T19:07:40.193Z,59.92
2023-06-01T19:10:08.016Z,60.16
2023-06-01T19:12:35.008Z,60.52
2023-06-01T19:15:13.336Z,60.88
2023-06-01T19:17:40.737Z,60.87
2023-06-01T19:20:31.550Z,61.40
2023-06-01T19:22:58.207Z,61.08
2023-06-01T19:25:24.643Z,60.93
2023-06-01T19:27:51.086Z,60.91
2023-06-01T19:30:17.505Z,60.87
2023-06-01T19:32:43.958Z,60.98
2023-06-01T19:35:10.964Z,60.91
2023-06-01T19:37:37.304Z,60.71
2023-06-01T19:40:03.854Z,60.70
2023-06-01T19:42:37.094Z,61.15
2023-06-01T19:45:03.821Z,61.24
2023-06-01T19:47:47.008Z,60.81
2023-06-01T19:50:31.584Z,60.80
2023-06-01T19:53:02.646Z,60.98
2023-06-01T19:55:30.970Z,60.71
2023-06-01T19:57:57.919Z,60.96
2023-06-01T20:00:29.134Z,60.78
2023-06-01T20:02:56.893Z,60.03
2023-06-01T20:05:26.020Z,59.74
2023-06-01T20:07:57.312Z,59.54
2023-06-01T20:10:26.386Z,60.11
2023-06-01T20:12:57.448Z,59.79
2023-06-01T20:15:30.016Z,60.07
2023-06-01T20:17:59.871Z,60.19
2023-06-01T20:20:27.723Z,60.02
2023-06-01T20:22:54.322Z,60.22
2023-06-01T20:25:22.142Z,60.05
2023-06-01T20:27:49.372Z,60.29
2023-06-01T20:31:00.988Z,60.67
2023-06-01T20:33:28.550Z,60.65
2023-06-01T20:36:00.854Z,60.28
2023-06-01T20:38:27.404Z,60.24
2023-06-01T20:40:53.857Z,60.50
2023-06-01T20:43:24.985Z,59.79
2023-06-01T20:46:02.817Z,60.52
2023-06-01T20:48:42.881Z,60.38
2023-06-01T20:51:27.163Z,60.11
2023-06-01T20:53:55.139Z,60.67
2023-06-01T20:56:41.726Z,60.76
2023-06-01T20:59:12.675Z,60.50
2023-06-01T21:01:41.929Z,60.78
2023-06-01T21:04:11.979Z,60.69
2023-06-01T21:06:38.985Z,60.65
2023-06-01T21:09:11.491Z,60.69
2023-06-01T21:11:39.081Z,60.71
2023-06-01T21:14:05.675Z,60.78
2023-06-01T21:16:32.630Z,60.70
2023-06-01T21:18:59.007Z,61.13
2023-06-01T21:21:25.566Z,61.16
2023-06-01T21:23:54.770Z,61.20
2023-06-01T21:26:25.170Z,61.32
2023-06-01T21:28:51.662Z,61.37
2023-06-01T21:31:18.777Z,61.64
2023-06-01T21:33:46.312Z,61.24
2023-06-01T21:36:13.831Z,61.64
2023-06-01T21:38:40.951Z,61.45
2023-06-01T21:41:07.535Z,61.54
2023-06-01T21:43:34.008Z,61.06
2023-06-01T21:46:01.178Z,61.17
2023-06-01T21:48:28.812Z,61.30
2023-06-01T21:50:55.371Z,61.20
2023-06-01T21:53:22.912Z,60.94
2023-06-01T21:55:50.499Z,60.81
2023-06-01T21:58:19.466Z,60.39
2023-06-01T22:00:48.119Z,60.62
2023-06-01T22:03:17.823Z,60.72
2023-06-01T22:05:44.603Z,60.59
2023-06-01T22:08:11.088Z,60.30
2023-06-01T22:10:37.510Z,60.01
2023-06-01T22:13:04.689Z,60.18
2023-06-01T22:15:31.840Z,59.99
2023-06-01T22:17:58.842Z,59.05
2023-06-01T22:20:25.765Z,58.92
2023-06-01T22:22:52.354Z,58.86
2023-06-01T22:25:18.856Z,59.05
2023-06-01T22:27:45.435Z,59.19
2023-06-01T22:30:12.231Z,59.13
2023-06-01T22:32:38.806Z,58.98
2023-06-01T22:35:06.325Z,58.96
2023-06-01T22:37:32.835Z,58.60
2023-06-01T22:39:59.350Z,58.57
2023-06-01T22:42:26.351Z,59.03
2023-06-01T22:44:52.781Z,58.91
2023-06-01T22:47:19.394Z,58.66
2023-06-01T22:49:45.833Z,59.00
2023-06-01T22:52:14.062Z,58.91
2023-06-01T22:54:41.513Z,58.72
2023-06-01T22:57:08.734Z,58.91
2023-06-01T22:59:35.895Z,59.29
2023-06-01T23:02:02.520Z,59.56
2023-06-01T23:04:29.973Z,59.66
2023-06-01T23:06:56.429Z,59.48
2023-06-01T23:09:26.074Z,59.26
2023-06-01T23:11:52.938Z,59.69
2023-06-01T23:14:30.093Z,59.62
2023-06-01T23:17:01.500Z,59.43
2023-06-01T23:19:32.807Z,59.56
2023-06-01T23:22:06.631Z,59.69
2023-06-01T23:24:33.502Z,60.08
2023-06-01T23:27:01.394Z,59.98
2023-06-01T23:29:28.914Z,59.90
2023-06-01T23:31:56.241Z,59.84
2023-06-01T23:34:22.874Z,60.23
2023-06-01T23:36:54.206Z,60.44
2023-06-01T23:39:24.195Z,60.57
2023-06-01T23:41:50.770Z,60.47
2023-06-01T23:44:17.511Z,60.40
2023-06-01T23:46:45.938Z,60.40
2023-06-01T23:49:12.807Z,60.42
2023-06-01T23:51:39.523Z,60.78
2023-06-01T23:54:06.072Z,60.74
2023-06-01T23:56:32.623Z,60.76
2023-06-01T23:58:59.062Z,61.00
